createdAt,value
2018-04-24T00:01:36.361Z,5.30
2018-04-24T00:07:04.550Z,5.60
2018-04-24T00:12:33.013Z,5.20
2018-04-24T00:18:01.189Z,5.60
2018-04-24T00:23:30.330Z,5.90
2018-04-24T00:28:59.448Z,5.40
2018-04-24T00:34:27.656Z,5.70
2018-04-24T00:39:55.762Z,5.80
2018-04-24T00:45:24.841Z,5.70
2018-04-24T00:50:53.769Z,6.33
2018-04-24T00:56:22.688Z,5.10
2018-04-24T01:01:50.887Z,6.53
2018-04-24T01:07:19.062Z,5.37
2018-04-24T01:12:47.978Z,5.33
2018-04-24T01:18:16.129Z,5.00
2018-04-24T01:23:44.285Z,4.70
2018-04-24T01:29:12.458Z,4.93
2018-04-24T01:34:42.316Z,4.97
2018-04-24T01:40:11.256Z,5.40
2018-04-24T01:45:40.174Z,4.20
2018-04-24T01:51:08.321Z,4.70
2018-04-24T01:56:36.681Z,4.30
2018-04-24T02:02:04.898Z,4.17
2018-04-24T02:07:33.054Z,3.57
2018-04-24T02:13:01.248Z,4.23
2018-04-24T02:18:30.255Z,3.90
2018-04-24T02:23:58.400Z,3.80
2018-04-24T02:29:26.600Z,3.87
2018-04-24T02:34:54.752Z,3.47
2018-04-24T02:40:22.928Z,4.10
2018-04-24T02:45:51.070Z,4.20
2018-04-24T02:51:19.223Z,3.67
2018-04-24T02:56:47.367Z,3.80
2018-04-24T03:02:21.447Z,4.27
2018-04-24T03:07:49.593Z,4.70
2018-04-24T03:13:17.731Z,4.30
2018-04-24T03:18:45.876Z,5.07
2018-04-24T03:24:14.058Z,5.47
2018-04-24T03:29:42.226Z,4.03
2018-04-24T03:35:11.146Z,4.43
2018-04-24T03:40:39.297Z,4.30
2018-04-24T03:46:08.229Z,4.77
2018-04-24T03:51:37.147Z,5.77
2018-04-24T03:57:05.298Z,6.00
2018-04-24T04:02:34.285Z,4.53
2018-04-24T04:08:02.450Z,6.40
2018-04-24T04:13:31.392Z,6.00
2018-04-24T04:19:17.219Z,5.90
2018-04-24T04:24:48.026Z,4.90
2018-04-24T04:30:16.315Z,5.50
2018-04-24T04:35:45.232Z,5.53
2018-04-24T04:41:14.313Z,5.50
2018-04-24T04:46:43.226Z,5.80
2018-04-24T04:52:11.375Z,5.87
2018-04-24T04:57:39.532Z,6.47
2018-04-24T05:03:07.714Z,6.20
2018-04-24T05:08:37.866Z,6.90
2018-04-24T05:14:06.768Z,7.07
2018-04-24T05:19:34.924Z,5.67
2018-04-24T05:25:03.838Z,6.73
2018-04-24T05:30:32.185Z,5.93
2018-04-24T05:36:01.137Z,5.23
2018-04-24T05:41:30.119Z,5.83
2018-04-24T05:46:58.298Z,5.70
2018-04-24T05:52:26.507Z,4.70
2018-04-24T05:57:54.641Z,5.70
2018-04-24T06:03:22.798Z,4.90
2018-04-24T06:08:50.969Z,5.10
2018-04-24T06:14:19.108Z,4.83
2018-04-24T06:19:47.244Z,5.40
2018-04-24T06:25:15.412Z,4.80
2018-04-24T06:30:43.563Z,4.70
2018-04-24T06:36:11.726Z,5.70
2018-04-24T06:41:39.870Z,5.43
2018-04-24T06:47:08.016Z,5.30
2018-04-24T06:52:36.182Z,5.33
2018-04-24T06:58:04.345Z,5.57
2018-04-24T07:03:33.260Z,5.43
2018-04-24T07:09:02.214Z,5.70
2018-04-24T07:14:30.399Z,5.00
2018-04-24T07:19:58.589Z,5.30
2018-04-24T07:25:26.762Z,5.67
2018-04-24T07:30:54.964Z,6.13
2018-04-24T07:36:23.118Z,5.57
2018-04-24T07:41:51.286Z,5.77
2018-04-24T07:47:19.450Z,6.00
2018-04-24T07:52:48.358Z,5.50
2018-04-24T07:58:16.502Z,5.03
2018-04-24T08:03:45.429Z,5.17
2018-04-24T08:09:13.592Z,5.20
2018-04-24T08:14:41.758Z,5.13
2018-04-24T08:20:09.921Z,5.43
2018-04-24T08:25:38.074Z,4.80
2018-04-24T08:31:06.244Z,5.10
2018-04-24T08:36:35.189Z,4.90
2018-04-24T08:42:04.112Z,5.50
2018-04-24T08:47:32.289Z,5.63
2018-04-24T08:53:00.456Z,5.13
2018-04-24T08:58:29.372Z,4.70
2018-04-24T09:03:57.550Z,4.43
2018-04-24T09:09:25.695Z,4.83
2018-04-24T09:14:53.853Z,4.03
2018-04-24T09:20:22.771Z,4.47
2018-04-24T09:25:50.913Z,3.80
2018-04-24T09:31:19.830Z,4.67
2018-04-24T09:36:47.955Z,4.40
2018-04-24T09:42:16.128Z,4.20
2018-04-24T09:47:44.281Z,3.97
2018-04-24T09:53:12.437Z,3.93
2018-04-24T09:58:41.353Z,3.80
2018-04-24T10:04:09.498Z,3.47
2018-04-24T10:09:37.652Z,2.93
2018-04-24T10:15:05.800Z,3.30
2018-04-24T10:20:33.952Z,3.27
2018-04-24T10:26:02.097Z,3.03
2018-04-24T10:31:30.312Z,3.17
2018-04-24T10:36:58.490Z,3.70
2018-04-24T10:42:27.411Z,2.87
2018-04-24T10:47:56.420Z,3.20
2018-04-24T10:53:24.508Z,3.00
2018-04-24T10:58:52.667Z,2.40
2018-04-24T11:04:20.822Z,2.80
2018-04-24T11:09:48.987Z,2.13
2018-04-24T11:15:17.140Z,3.17
2018-04-24T11:20:45.268Z,2.67
2018-04-24T11:26:13.446Z,3.63
2018-04-24T11:31:41.585Z,2.63
2018-04-24T11:37:09.736Z,3.07
2018-04-24T11:42:37.886Z,2.20
2018-04-24T11:48:06.042Z,2.80
2018-04-24T11:53:34.206Z,2.70
2018-04-24T11:59:02.386Z,2.23
2018-04-24T12:04:30.539Z,2.70
2018-04-24T12:09:58.701Z,2.00
2018-04-24T12:15:26.823Z,2.30
2018-04-24T12:20:55.733Z,3.00
2018-04-24T12:26:23.894Z,2.80
2018-04-24T12:31:52.031Z,2.20
2018-04-24T12:37:20.202Z,2.27
2018-04-24T12:42:48.361Z,2.27
2018-04-24T12:48:16.495Z,2.10
2018-04-24T12:53:44.655Z,2.57
2018-04-24T12:59:12.868Z,2.23
2018-04-24T13:04:40.922Z,2.27
2018-04-24T13:10:09.065Z,2.53
2018-04-24T13:15:37.205Z,2.80
2018-04-24T13:21:05.348Z,2.10
2018-04-24T13:26:33.513Z,2.87
2018-04-24T13:32:01.676Z,1.90
2018-04-24T13:37:29.831Z,2.37
2018-04-24T13:42:57.989Z,2.73
2018-04-24T13:48:26.152Z,2.20
2018-04-24T13:53:54.294Z,2.23
2018-04-24T13:59:22.476Z,2.60
2018-04-24T14:04:51.370Z,2.10
2018-04-24T14:10:19.512Z,2.47
2018-04-24T14:15:47.645Z,1.90
2018-04-24T14:21:16.594Z,2.13
2018-04-24T14:26:45.516Z,1.90
2018-04-24T14:32:15.610Z,1.67
2018-04-24T14:37:44.529Z,2.00
2018-04-24T14:43:13.425Z,2.00
2018-04-24T14:48:41.561Z,2.30
2018-04-24T14:54:09.692Z,2.17
2018-04-24T14:59:37.875Z,2.47
2018-04-24T15:05:06.033Z,2.03
2018-04-24T15:10:34.214Z,2.17
2018-04-24T15:16:02.377Z,2.50
2018-04-24T15:21:31.452Z,2.70
2018-04-24T15:26:59.897Z,2.53
2018-04-24T15:32:28.193Z,2.30
2018-04-24T15:37:56.362Z,2.10
2018-04-24T15:43:24.488Z,2.73
2018-04-24T15:48:52.641Z,2.80
2018-04-24T15:54:21.547Z,2.70
2018-04-24T15:59:49.701Z,2.37
2018-04-24T16:05:18.597Z,2.40
2018-04-24T16:10:46.746Z,2.37
2018-04-24T16:16:14.904Z,2.33
2018-04-24T16:21:43.049Z,2.77
2018-04-24T16:27:11.180Z,2.20
2018-04-24T16:32:39.330Z,2.60
2018-04-24T16:38:08.225Z,2.50
2018-04-24T16:43:36.404Z,2.73
2018-04-24T16:49:04.582Z,2.30
2018-04-24T16:54:33.133Z,2.40
2018-04-24T17:00:02.093Z,2.40
2018-04-24T17:05:30.268Z,2.90
2018-04-24T17:10:58.484Z,2.30
2018-04-24T17:16:27.696Z,2.70
2018-04-24T17:21:56.009Z,2.27
2018-04-24T17:27:24.186Z,2.20
2018-04-24T17:32:53.688Z,2.77
2018-04-24T17:38:21.835Z,3.67
2018-04-24T17:43:49.986Z,2.30
2018-04-24T17:49:18.909Z,2.10
2018-04-24T17:54:47.142Z,2.27
2018-04-24T18:00:17.000Z,2.30
2018-04-24T18:05:45.917Z,2.50
2018-04-24T18:11:14.672Z,2.60
2018-04-24T18:16:43.141Z,2.70
2018-04-24T18:22:11.303Z,3.23
2018-04-24T18:27:39.488Z,2.70
2018-04-24T18:33:07.668Z,4.30
2018-04-24T18:38:36.614Z,3.80
2018-04-24T18:44:05.564Z,4.17
2018-04-24T18:49:33.710Z,3.73
2018-04-24T18:55:01.976Z,3.30
2018-04-24T19:00:30.917Z,3.13
2018-04-24T19:06:00.858Z,3.43
2018-04-24T19:11:30.763Z,5.50
2018-04-24T19:16:59.370Z,17.97
2018-04-24T19:22:27.569Z,5.93
2018-04-24T19:27:55.991Z,5.07
2018-04-24T19:33:25.082Z,7.07
2018-04-24T19:45:13.209Z,9.87
2018-04-24T19:50:41.368Z,7.13
2018-04-24T19:56:09.519Z,5.20
2018-04-24T20:01:37.682Z,5.67
2018-04-24T20:07:05.963Z,5.50
2018-04-24T20:12:34.139Z,4.17
2018-04-24T20:18:02.288Z,5.13
2018-04-24T20:23:30.670Z,5.00
2018-04-24T20:28:58.908Z,4.30
2018-04-24T20:34:27.541Z,4.83
2018-04-24T20:39:55.706Z,4.03
2018-04-24T20:45:24.791Z,5.80
2018-04-24T20:50:54.644Z,5.33
2018-04-24T20:56:23.572Z,6.30
2018-04-24T21:01:52.496Z,5.87
2018-04-24T21:07:20.629Z,5.23
2018-04-24T21:12:54.588Z,4.80
2018-04-24T21:18:23.500Z,5.10
2018-04-24T21:23:51.651Z,5.20
2018-04-24T21:29:20.591Z,4.60
2018-04-24T21:34:49.538Z,4.67
2018-04-24T21:40:17.689Z,3.33
2018-04-24T21:45:45.842Z,5.07
2018-04-24T21:51:13.992Z,4.40
2018-04-24T21:56:43.085Z,4.57
2018-04-24T22:02:11.239Z,3.27
2018-04-24T22:07:39.388Z,3.57
2018-04-24T22:13:07.560Z,3.73
2018-04-24T22:18:36.714Z,3.17
2018-04-24T22:24:04.852Z,2.93
2018-04-24T22:29:33.761Z,3.13
2018-04-24T22:35:02.032Z,3.13
2018-04-24T22:40:30.271Z,3.47
2018-04-24T22:46:00.292Z,3.63
2018-04-24T22:51:29.209Z,3.40
2018-04-24T22:56:57.385Z,3.87
2018-04-24T23:02:25.583Z,3.30
2018-04-24T23:07:53.734Z,3.67
2018-04-24T23:13:39.993Z,3.57
2018-04-24T23:19:26.066Z,3.80
2018-04-24T23:24:54.204Z,3.30
2018-04-24T23:30:23.154Z,3.03
2018-04-24T23:36:12.716Z,4.60
2018-04-24T23:41:41.886Z,2.63
2018-04-24T23:47:10.060Z,3.20
2018-04-24T23:52:50.332Z,3.00
2018-04-24T23:58:18.476Z,3.07
